Arctic Bay, Canada
Current Conditions -  °F | °C
As of 3:00 PM on Friday 24 Oct 2014 (Local Time) from CYAB Reporting Station
Scattered Clouds Scattered Clouds  
Wind Chill: -15°   Ceiling: Unl
Heat Index:   Visibility: 15mi
Dew Point: -2°   Wind: 18mph
Humidity: 72%   Direction: 290°WNW
Pressure: 30.18"   Gusts: NA
Location:  73.03°N, 85.17°W
Report Text: CYAB 242000Z 29016KT 15SM FEW020 SCT040 M15/M19 A3018 RMK SC1SC2 -12.0/-16.6/0.0/6 MEDIUM PACK LAST STFD OBS/NXT 251700Z SLP222
Loading
Personal Weather Stations






























Interactive Weather Map
Tropical Storm Tracking
New forecast layout! Learn more

10-Day Weather Forecast

Advertisements
Track Severe Weather on mobile